Terminal Aerodrome Forecast
Issued by NWS Wichita, KS

Home | Current Version | Previous Version | Text Only | Print | Product List | Glossary On
Versions: 1 2 3 4 5 6 7 8 9 10 11 12 13 14 15 16
000
FTUS43 KICT 302336
TAFICT
TAF
KICT 302336Z 3100/3124 02007KT P6SM SCT020 BKN030
      TEMPO 3100/3102 BKN025
     FM310400 03010KT P6SM BKN020
     FM310900 01005KT 5SM BR SCT007 BKN020
     FM311600 05007KT P6SM SCT020 BKN035
     FM312200 10007KT P6SM SCT035=

USA.gov is the U.S. government's official web portal to all federal, state and local government web resources and services.